Pagrindinis puslapis
METAR-TAF:

METAR-TAF

Oro uostai :

Page, Arizona, Jungtinės Amerikos Valstijos

platuma: 36-55-14N, ilguma: 111-26-53W, Aukštis: 1314 m

Dabartinis oras

Ataskaita buvo paskelbta 39 minutes, ne 20:53 UTC
Vėjas 11 kt iš Vakarų/Šiaurės Vakarų su gūsio iki 21 kt
Temperatūra 13°C
Drėgmė 22%
Slėgis 1020 hPa
Matomumas: 16.1 km
Giedras dangus

METAR: KPGA 272053Z AUTO 30011G21KT 10SM CLR 13/M08 A3011 RMK AO2 SLP179 T01331078 58011 TSNO

Laikas: 14:32 (21:32 UTC)

Prognozė

Ataskaita buvo paskelbta 3 valandos ir 59 minutes, ne 17:33 UTC
Prognozė galioja nuo 27 metu 18 UTC su 28 metu 18 UTC
Vėjas 5 kt iš Šiaurės Vakarų
Matomumas: 10 km
Mažai debesys ne aukštis 5000 ft
Nuo 27 metu 1900 UTC
Vėjas 9 kt iš Šiaurės/Šiaurės Vakarų su gūsio iki 15 kt
Matomumas: 10 km
Mažai debesys ne aukštis 25000 ft
Nuo 28 metu 0100 UTC
Vėjas 5 kt nuo kintamojo kryptimis
Matomumas: 10 km
Išsisklaidę debesys ne aukštis 25000 ft

TAF: KPGA 271733Z 2718/2818 31005KT P6SM FEW050 FM271900 34009G15KT P6SM FEW250 FM280100 VRB05KT P6SM SCT250

Orai ataskaitas ir orų prognozės (METAR, TAF).

turimą stotys yra geltonos ir raudonos taškus žemėlapyje.

Perkelti pele per norėdami pamatyti stoties vardą.

Tada spustelėkite, norėdami matyti oro stebėjimo ir prognozės.

Norėdami pakeisti žemėlapį: spustelėkite ant žalios mygtukų su juodo kryžiaus žemyn,; žalią mygtuką su brūkšneliu, jei norite nutolinti; arba žalių rodyklių gretimoms žemėlapius.


METAR-TAF: